createdAt,value
2022-11-02T00:01:20.976Z,99158.09
2022-11-02T00:03:48.426Z,99144.78
2022-11-02T00:06:15.258Z,99151.59
2022-11-02T00:08:41.861Z,99141.88
2022-11-02T00:11:08.559Z,99139.41
2022-11-02T00:13:35.265Z,99149.78
2022-11-02T00:16:07.579Z,99137.44
2022-11-02T00:18:35.850Z,99143.16
2022-11-02T00:21:04.290Z,99142.84
2022-11-02T00:23:32.079Z,99130.81
2022-11-02T00:26:02.550Z,99135.53
2022-11-02T00:28:30.558Z,99131.50
2022-11-02T00:30:57.361Z,99128.59
2022-11-02T00:33:23.855Z,99125.00
2022-11-02T00:35:50.434Z,99124.00
2022-11-02T00:38:17.064Z,99118.28
2022-11-02T00:40:43.553Z,99112.91
2022-11-02T00:43:10.076Z,99119.06
2022-11-02T00:45:36.711Z,99117.63
2022-11-02T00:48:03.720Z,99113.88
2022-11-02T00:50:30.703Z,99108.38
2022-11-02T00:52:57.489Z,99112.41
2022-11-02T00:55:24.537Z,99114.84
2022-11-02T00:57:51.028Z,99111.09
2022-11-02T01:00:17.768Z,99115.00
2022-11-02T01:02:44.452Z,99104.81
2022-11-02T01:05:12.198Z,99106.59
2022-11-02T01:07:39.351Z,99110.50
2022-11-02T01:10:07.902Z,99106.09
2022-11-02T01:12:37.349Z,99105.75
2022-11-02T01:15:05.837Z,99111.78
2022-11-02T01:17:32.422Z,99108.19
2022-11-02T01:19:59.047Z,99106.69
2022-11-02T01:22:25.613Z,99103.59
2022-11-02T01:24:52.119Z,99107.66
2022-11-02T01:27:18.660Z,99097.91
2022-11-02T01:29:45.262Z,99099.88
2022-11-02T01:32:11.788Z,99102.31
2022-11-02T01:34:38.332Z,99101.66
2022-11-02T01:37:05.094Z,99101.66
2022-11-02T01:39:31.672Z,99097.69
2022-11-02T01:41:58.210Z,99093.44
2022-11-02T01:44:30.938Z,99089.22
2022-11-02T01:47:11.603Z,99085.47
2022-11-02T01:49:43.137Z,99071.97
2022-11-02T01:52:24.137Z,99082.09
2022-11-02T01:55:04.538Z,99086.16
2022-11-02T01:57:33.457Z,99082.91
2022-11-02T02:00:05.849Z,99081.09
2022-11-02T02:02:35.505Z,99082.38
2022-11-02T02:05:07.631Z,99089.88
2022-11-02T02:07:38.214Z,99086.59
2022-11-02T02:10:06.599Z,99091.16
2022-11-02T02:12:34.746Z,99080.25
2022-11-02T02:15:01.871Z,99083.97
2022-11-02T02:17:39.887Z,99086.22
2022-11-02T02:20:30.758Z,99085.91
2022-11-02T02:23:15.589Z,99081.75
2022-11-02T02:26:22.367Z,99085.47
2022-11-02T02:29:05.193Z,99086.09
2022-11-02T02:31:47.416Z,99087.03
2022-11-02T02:34:30.104Z,99093.22
2022-11-02T02:37:06.426Z,99077.91
2022-11-02T02:39:56.065Z,99081.00
2022-11-02T02:42:47.120Z,99081.28
2022-11-02T02:45:20.277Z,99066.84
2022-11-02T02:48:02.164Z,99067.66
2022-11-02T02:50:42.917Z,99067.47
2022-11-02T02:53:10.271Z,99073.19
2022-11-02T02:55:43.443Z,99075.44
2022-11-02T02:58:17.143Z,99070.88
2022-11-02T03:00:44.944Z,99079.34
2022-11-02T03:03:19.193Z,99072.59
2022-11-02T03:06:07.377Z,99075.03
2022-11-02T03:08:38.265Z,99082.31
2022-11-02T03:11:15.888Z,99085.25
2022-11-02T03:13:57.494Z,99083.16
2022-11-02T03:16:29.891Z,99077.78
2022-11-02T03:19:12.141Z,99072.44
2022-11-02T03:21:44.112Z,99059.44
2022-11-02T03:24:13.507Z,99067.03
2022-11-02T03:27:11.254Z,99063.13
2022-11-02T03:29:59.166Z,99061.50
2022-11-02T03:32:29.854Z,99062.94
2022-11-02T03:34:59.077Z,99060.19
2022-11-02T03:37:31.162Z,99053.66
2022-11-02T03:40:12.117Z,99052.97
2022-11-02T03:42:41.629Z,99052.53
2022-11-02T03:45:15.990Z,99055.44
2022-11-02T03:47:46.965Z,99050.41
2022-11-02T03:50:19.298Z,99050.41
2022-11-02T03:52:49.658Z,99058.09
2022-11-02T03:55:26.205Z,99042.47
2022-11-02T03:57:52.867Z,99046.00
2022-11-02T04:00:24.991Z,99041.78
2022-11-02T04:02:55.980Z,99039.81
2022-11-02T04:05:31.358Z,99040.69
2022-11-02T04:07:59.643Z,99045.97
2022-11-02T04:10:26.352Z,99042.56
2022-11-02T04:12:52.907Z,99032.84
2022-11-02T04:15:19.538Z,99033.66
2022-11-02T04:17:46.033Z,99042.72
2022-11-02T04:20:12.696Z,99038.03
2022-11-02T04:22:39.399Z,99040.13
2022-11-02T04:25:08.245Z,99037.19
2022-11-02T04:27:34.813Z,99041.16
2022-11-02T04:30:01.610Z,99043.25
2022-11-02T04:32:28.343Z,99050.88
2022-11-02T04:34:54.796Z,99047.97
2022-11-02T04:37:21.577Z,99051.56
2022-11-02T04:39:48.118Z,99047.97
2022-11-02T04:42:14.582Z,99051.91
2022-11-02T04:44:41.160Z,99037.91
2022-11-02T04:47:07.658Z,99046.19
2022-11-02T04:49:34.228Z,99045.38
2022-11-02T04:52:00.900Z,99038.91
2022-11-02T04:54:27.797Z,99033.06
2022-11-02T04:56:54.430Z,99040.25
2022-11-02T04:59:21.203Z,99034.66
2022-11-02T05:01:50.844Z,99032.25
2022-11-02T05:04:17.810Z,99040.25
2022-11-02T05:06:44.589Z,99034.81
2022-11-02T05:09:11.185Z,99032.84
2022-11-02T05:11:39.471Z,99035.09
2022-11-02T05:14:09.199Z,99035.91
2022-11-02T05:16:35.687Z,99031.97
2022-11-02T05:19:04.499Z,99027.84
2022-11-02T05:21:33.481Z,99032.16
2022-11-02T05:24:00.110Z,99030.44
2022-11-02T05:26:26.755Z,99039.28
2022-11-02T05:28:53.442Z,99039.88
2022-11-02T05:31:19.987Z,99037.44
2022-11-02T05:33:46.446Z,99038.50
2022-11-02T05:36:13.039Z,99046.94
2022-11-02T05:41:11.342Z,99044.75
2022-11-02T05:43:38.070Z,99050.59
2022-11-02T05:46:05.131Z,99042.13
2022-11-02T05:48:33.200Z,99037.22
2022-11-02T05:51:01.998Z,99036.34
2022-11-02T05:53:29.356Z,99037.16
2022-11-02T05:56:00.017Z,99034.69
2022-11-02T05:58:27.176Z,99035.06
2022-11-02T06:00:54.028Z,99026.91
2022-11-02T06:03:20.941Z,99039.16
2022-11-02T06:05:47.645Z,99034.50
2022-11-02T06:08:14.357Z,99035.31
2022-11-02T06:10:40.949Z,99024.19
2022-11-02T06:13:07.697Z,99029.84
2022-11-02T06:15:34.298Z,99033.09
2022-11-02T06:18:00.790Z,99033.19
2022-11-02T06:20:27.395Z,99028.97
2022-11-02T06:22:53.903Z,99025.28
2022-11-02T06:25:20.500Z,99021.34
2022-11-02T06:27:52.808Z,99020.72
2022-11-02T06:30:19.303Z,99017.44
2022-11-02T06:32:50.660Z,99016.06
2022-11-02T06:35:18.604Z,99013.41
2022-11-02T06:37:45.877Z,99021.53
2022-11-02T06:40:14.200Z,99026.06
2022-11-02T06:42:45.049Z,99030.38
2022-11-02T06:45:11.954Z,99029.06
2022-11-02T06:47:38.623Z,99035.16
2022-11-02T06:50:06.403Z,99027.31
2022-11-02T06:52:33.378Z,99025.38
2022-11-02T06:55:00.239Z,99032.13
2022-11-02T06:57:42.028Z,99035.16
2022-11-02T07:00:11.564Z,99031.84
2022-11-02T07:02:41.373Z,99035.84
2022-11-02T07:05:08.857Z,99033.53
2022-11-02T07:07:35.585Z,99036.72
2022-11-02T07:10:02.323Z,99027.50
2022-11-02T07:12:28.944Z,99028.84
2022-11-02T07:14:55.480Z,99028.47
2022-11-02T07:17:22.188Z,99023.16
2022-11-02T07:19:49.429Z,99035.53
2022-11-02T07:22:19.049Z,99029.94
2022-11-02T07:24:45.655Z,99031.53
2022-11-02T07:27:12.143Z,99033.78
2022-11-02T07:29:38.780Z,99032.78
2022-11-02T07:32:05.382Z,99033.16
2022-11-02T07:34:31.968Z,99032.34
2022-11-02T07:36:59.195Z,99031.63
2022-11-02T07:39:25.916Z,99031.19
2022-11-02T07:41:52.389Z,99036.69
2022-11-02T07:44:18.898Z,99037.13
2022-11-02T07:46:45.599Z,99039.94
2022-11-02T07:49:12.161Z,99039.28
2022-11-02T07:51:38.665Z,99039.44
2022-11-02T07:54:05.479Z,99046.75
2022-11-02T07:56:32.076Z,99048.44
2022-11-02T07:58:58.712Z,99053.75
2022-11-02T08:01:25.496Z,99057.25
2022-11-02T08:03:52.076Z,99055.75
2022-11-02T08:06:18.933Z,99058.44
2022-11-02T08:08:45.727Z,99054.56
2022-11-02T08:11:12.291Z,99054.09
2022-11-02T08:13:39.027Z,99050.69
2022-11-02T08:16:05.761Z,99049.16
2022-11-02T08:18:32.344Z,99044.97
2022-11-02T08:21:01.673Z,99050.00
2022-11-02T08:23:28.470Z,99044.09
2022-11-02T08:26:01.985Z,99044.94
2022-11-02T08:28:31.596Z,99036.69
2022-11-02T08:30:59.110Z,99041.50
2022-11-02T08:33:25.653Z,99040.50
2022-11-02T08:35:52.496Z,99035.59
2022-11-02T08:38:19.509Z,99036.31
2022-11-02T08:40:46.031Z,99033.47
2022-11-02T08:43:14.410Z,99029.88
2022-11-02T08:48:32.188Z,99027.47
2022-11-02T08:50:59.173Z,99026.34
2022-11-02T08:53:25.977Z,99019.34
2022-11-02T08:55:53.014Z,99024.63
2022-11-02T08:58:19.803Z,99018.72
2022-11-02T09:01:04.047Z,99024.19
2022-11-02T09:03:30.643Z,99023.28
2022-11-02T09:06:00.052Z,99009.44
2022-11-02T09:08:27.058Z,99013.88
2022-11-02T09:10:57.434Z,99029.72
2022-11-02T09:13:23.973Z,99013.59
2022-11-02T09:15:55.437Z,99018.22
2022-11-02T09:18:22.804Z,99020.63
2022-11-02T09:20:50.087Z,99020.59
2022-11-02T09:23:17.527Z,99019.44
2022-11-02T09:25:44.344Z,99024.66
2022-11-02T09:28:11.630Z,99024.41
2022-11-02T09:30:38.787Z,99026.63
2022-11-02T09:33:06.331Z,99024.16
2022-11-02T09:35:44.139Z,99023.41
2022-11-02T09:38:11.415Z,99017.69
2022-11-02T09:40:40.802Z,99016.56
2022-11-02T09:43:22.536Z,99015.88
2022-11-02T09:46:00.141Z,99007.00
2022-11-02T09:48:34.422Z,99009.69
2022-11-02T09:51:06.681Z,99000.97
2022-11-02T09:53:43.256Z,99001.06
2022-11-02T09:56:13.055Z,99005.94
2022-11-02T09:58:40.965Z,99000.69
2022-11-02T10:01:25.196Z,99006.09
2022-11-02T10:04:27.842Z,98997.31
2022-11-02T10:07:02.704Z,98994.63
2022-11-02T10:09:49.915Z,98992.69
2022-11-02T10:12:24.955Z,98993.34
2022-11-02T10:15:17.032Z,98992.34
2022-11-02T10:17:46.269Z,98980.66
2022-11-02T10:20:33.052Z,98985.50
2022-11-02T10:23:07.189Z,98995.06
2022-11-02T10:25:35.734Z,98983.84
2022-11-02T10:28:12.359Z,98982.06
2022-11-02T10:30:39.867Z,98990.09
2022-11-02T10:33:16.774Z,98980.84
2022-11-02T10:36:17.656Z,98979.00
2022-11-02T10:38:53.400Z,98989.66
2022-11-02T10:41:34.831Z,98991.28
2022-11-02T10:44:20.014Z,98978.97
2022-11-02T10:46:57.839Z,98980.97
2022-11-02T10:49:49.381Z,98983.97
2022-11-02T10:52:17.454Z,98987.19
2022-11-02T10:54:44.043Z,98982.28
2022-11-02T10:57:15.333Z,98979.09
2022-11-02T10:59:41.826Z,98974.28
2022-11-02T11:02:14.024Z,98970.59
2022-11-02T11:04:42.468Z,98967.59
2022-11-02T11:07:26.070Z,98967.19
2022-11-02T11:09:56.987Z,98965.97
2022-11-02T11:12:32.791Z,98963.16
2022-11-02T11:20:39.939Z,98965.66
2022-11-02T11:23:24.502Z,98966.41
2022-11-02T11:26:03.055Z,98966.75
2022-11-02T11:28:36.751Z,98962.75
2022-11-02T11:31:05.429Z,98963.75
2022-11-02T11:33:33.702Z,98959.53
2022-11-02T11:36:00.505Z,98955.91
2022-11-02T11:38:27.748Z,98953.34
2022-11-02T11:40:58.657Z,98962.19
2022-11-02T11:43:27.895Z,98958.19
2022-11-02T11:46:06.472Z,98952.91
2022-11-02T11:48:55.942Z,98957.88
2022-11-02T11:51:42.336Z,98958.81
2022-11-02T11:54:23.785Z,98959.44
2022-11-02T11:56:53.511Z,98962.00
2022-11-02T11:59:24.683Z,98958.38
2022-11-02T12:02:01.779Z,98963.53
2022-11-02T12:04:33.274Z,98962.38
2022-11-02T12:07:25.984Z,98971.19
2022-11-02T12:09:58.508Z,98965.97
2022-11-02T12:12:43.468Z,98965.09
2022-11-02T12:15:34.846Z,98973.75
2022-11-02T12:18:38.482Z,98971.44
2022-11-02T12:21:14.032Z,98969.78
2022-11-02T12:24:15.989Z,98972.59
2022-11-02T12:26:51.641Z,98970.16
2022-11-02T12:29:30.439Z,98967.38
2022-11-02T12:32:23.416Z,98975.38
2022-11-02T12:35:02.976Z,98971.53
2022-11-02T12:37:58.589Z,98974.47
2022-11-02T12:40:51.333Z,98974.50
2022-11-02T12:43:44.741Z,98975.28
2022-11-02T12:46:42.283Z,98978.13
2022-11-02T12:49:35.403Z,98980.31
2022-11-02T12:52:22.366Z,98986.06
2022-11-02T12:54:55.419Z,98986.91
2022-11-02T12:57:25.771Z,98995.72
2022-11-02T12:59:57.814Z,98997.09
2022-11-02T13:02:33.155Z,98995.50
2022-11-02T13:05:08.958Z,98993.44
2022-11-02T13:07:43.913Z,98996.22
2022-11-02T13:10:24.600Z,99001.56
2022-11-02T13:12:59.092Z,98994.09
2022-11-02T13:15:29.364Z,99003.28
2022-11-02T13:18:03.625Z,99008.84
2022-11-02T13:20:40.774Z,99006.41
2022-11-02T13:23:33.690Z,99013.34
2022-11-02T13:26:03.671Z,99002.00
2022-11-02T13:28:33.925Z,99015.66
2022-11-02T13:31:01.608Z,99029.41
2022-11-02T13:33:41.566Z,99018.34
2022-11-02T13:36:15.280Z,99016.63
2022-11-02T13:38:51.342Z,99009.53
2022-11-02T13:41:36.727Z,99011.22
2022-11-02T13:44:15.158Z,99013.19
2022-11-02T13:47:00.366Z,99001.50
2022-11-02T13:49:35.363Z,99008.34
2022-11-02T13:52:04.730Z,99007.13
2022-11-02T13:54:42.350Z,99009.69
2022-11-02T13:57:31.309Z,99013.25
2022-11-02T13:59:58.787Z,99007.06
2022-11-02T14:02:28.834Z,99014.63
2022-11-02T14:04:55.543Z,99017.88
2022-11-02T14:07:30.575Z,99012.31
2022-11-02T14:10:15.784Z,99017.53
2022-11-02T14:12:47.802Z,99016.22
2022-11-02T14:15:14.255Z,99010.13
2022-11-02T14:17:52.917Z,99011.66
2022-11-02T14:20:34.079Z,99015.69
2022-11-02T14:23:09.711Z,99008.34
2022-11-02T14:25:57.298Z,99016.97
2022-11-02T14:28:41.755Z,99016.97
2022-11-02T14:31:17.405Z,99015.88
2022-11-02T14:34:14.997Z,99018.75
2022-11-02T14:36:50.577Z,99019.09
2022-11-02T14:39:36.062Z,99016.69
2022-11-02T14:42:23.457Z,99017.94
2022-11-02T14:45:08.301Z,99019.53
2022-11-02T14:47:38.539Z,99027.34
2022-11-02T14:50:10.617Z,99023.09
2022-11-02T14:52:38.774Z,99037.00
2022-11-02T14:55:29.863Z,99036.25
2022-11-02T14:58:11.061Z,99036.81
2022-11-02T15:00:47.322Z,99043.16
2022-11-02T15:03:28.193Z,99049.22
2022-11-02T15:06:16.861Z,99052.78
2022-11-02T15:09:01.917Z,99052.00
2022-11-02T15:11:44.708Z,99050.53
2022-11-02T15:14:51.444Z,99045.69
2022-11-02T15:17:17.894Z,99045.38
2022-11-02T15:19:46.726Z,99055.97
2022-11-02T15:22:31.969Z,99039.38
2022-11-02T15:25:03.249Z,99042.31
2022-11-02T15:27:30.559Z,99036.25
2022-11-02T15:29:58.191Z,99030.28
2022-11-02T15:32:28.746Z,99034.81
2022-11-02T15:34:57.057Z,99041.97
2022-11-02T15:37:27.394Z,99040.66
2022-11-02T15:39:56.753Z,99043.59
2022-11-02T15:42:45.189Z,99042.41
2022-11-02T15:48:32.153Z,99039.56
2022-11-02T15:51:26.697Z,99045.13
2022-11-02T15:54:14.992Z,99039.31
2022-11-02T15:56:46.933Z,99031.88
2022-11-02T15:59:22.639Z,99032.56
2022-11-02T16:02:05.397Z,99033.56
2022-11-02T16:04:33.276Z,99042.81
2022-11-02T16:07:05.746Z,99027.06
2022-11-02T16:09:37.730Z,99035.16
2022-11-02T16:12:14.537Z,99035.78
2022-11-02T16:14:41.634Z,99033.50
2022-11-02T16:17:33.361Z,99044.22
2022-11-02T16:20:21.828Z,99043.72
2022-11-02T16:22:57.591Z,99043.88
2022-11-02T16:25:40.368Z,99045.19
2022-11-02T16:28:27.462Z,99044.38
2022-11-02T16:31:16.120Z,99042.91
2022-11-02T16:33:53.910Z,99043.59
2022-11-02T16:36:32.149Z,99033.84
2022-11-02T16:39:02.330Z,99042.75
2022-11-02T16:41:37.097Z,99052.34
2022-11-02T16:44:11.368Z,99051.66
2022-11-02T16:47:07.273Z,99059.09
2022-11-02T16:49:53.987Z,99059.75
2022-11-02T16:52:37.071Z,99073.66
2022-11-02T16:55:35.144Z,99061.31
2022-11-02T16:58:02.980Z,99069.06
2022-11-02T17:00:29.697Z,99063.25
2022-11-02T17:02:56.260Z,99070.88
2022-11-02T17:05:25.475Z,99076.56
2022-11-02T17:08:03.418Z,99074.66
2022-11-02T17:10:32.448Z,99070.66
2022-11-02T17:13:01.476Z,99061.72
2022-11-02T17:15:30.406Z,99076.19
2022-11-02T17:18:09.459Z,99071.03
2022-11-02T17:20:38.243Z,99069.59
2022-11-02T17:23:29.562Z,99065.06
2022-11-02T17:26:21.748Z,99070.75
2022-11-02T17:29:03.373Z,99067.53
2022-11-02T17:31:38.516Z,99074.22
2022-11-02T17:34:19.143Z,99074.34
2022-11-02T17:36:47.842Z,99075.66
2022-11-02T17:39:16.221Z,99077.28
2022-11-02T17:41:48.667Z,99077.63
2022-11-02T17:44:16.866Z,99076.94
2022-11-02T17:46:45.970Z,99076.28
2022-11-02T17:49:12.991Z,99073.56
2022-11-02T17:51:39.853Z,99075.19
2022-11-02T17:54:06.815Z,99074.38
2022-11-02T17:56:33.614Z,99072.59
2022-11-02T17:59:00.478Z,99079.41
2022-11-02T18:01:27.193Z,99085.56
2022-11-02T18:03:53.806Z,99095.13
2022-11-02T18:06:20.603Z,99094.97
2022-11-02T18:08:47.127Z,99090.44
2022-11-02T18:11:13.687Z,99084.44
2022-11-02T18:13:40.185Z,99087.53
2022-11-02T18:16:07.044Z,99095.63
2022-11-02T18:18:33.630Z,99094.97
2022-11-02T18:21:00.170Z,99087.84
2022-11-02T18:23:26.654Z,99095.66
2022-11-02T18:25:56.594Z,99095.47
2022-11-02T18:28:26.175Z,99097.19
2022-11-02T18:30:52.694Z,99102.50
2022-11-02T18:33:19.337Z,99105.44
2022-11-02T18:35:45.875Z,99102.34
2022-11-02T18:38:12.693Z,99105.94
2022-11-02T18:40:39.459Z,99105.13
2022-11-02T18:43:06.322Z,99109.97
2022-11-02T18:45:33.107Z,99107.50
2022-11-02T18:47:59.674Z,99107.50
2022-11-02T18:50:26.261Z,99107.81
2022-11-02T18:52:52.845Z,99103.94
2022-11-02T18:55:19.500Z,99102.34
2022-11-02T18:57:46.480Z,99109.41
2022-11-02T19:00:13.991Z,99109.53
2022-11-02T19:02:41.024Z,99109.53
2022-11-02T19:05:08.797Z,99111.97
2022-11-02T19:07:35.861Z,99107.09
2022-11-02T19:10:03.923Z,99107.25
2022-11-02T19:12:31.270Z,99106.72
2022-11-02T19:14:58.631Z,99114.44
2022-11-02T19:17:27.123Z,99108.53
2022-11-02T19:19:54.173Z,99108.19
2022-11-02T19:22:23.764Z,99112.91
2022-11-02T19:24:51.061Z,99115.47
2022-11-02T19:27:20.337Z,99115.66
2022-11-02T19:29:47.663Z,99113.88
2022-11-02T19:32:16.570Z,99106.91
2022-11-02T19:34:43.182Z,99106.91
2022-11-02T19:37:10.791Z,99111.84
2022-11-02T19:39:37.727Z,99113.22
2022-11-02T19:42:04.424Z,99121.69
2022-11-02T19:44:31.175Z,99113.78
2022-11-02T19:47:02.861Z,99119.66
2022-11-02T19:49:29.410Z,99116.75
2022-11-02T19:51:55.943Z,99118.25
2022-11-02T19:54:22.658Z,99112.75
2022-11-02T19:56:49.194Z,99109.19
2022-11-02T19:59:16.870Z,99114.03
2022-11-02T20:01:46.327Z,99110.28
2022-11-02T20:04:13.176Z,99120.50
2022-11-02T20:06:46.892Z,99116.63
2022-11-02T20:09:19.283Z,99117.78
2022-11-02T20:11:47.225Z,99121.66
2022-11-02T20:14:20.328Z,99132.19
2022-11-02T20:16:58.361Z,99129.94
2022-11-02T20:19:31.272Z,99122.25
2022-11-02T20:21:57.884Z,99127.91
2022-11-02T20:24:24.466Z,99131.16
2022-11-02T20:26:50.991Z,99129.84
2022-11-02T20:29:18.518Z,99131.13
2022-11-02T20:31:45.463Z,99136.31
2022-11-02T20:34:12.942Z,99130.13
2022-11-02T20:36:39.849Z,99139.38
2022-11-02T20:39:06.610Z,99135.81
2022-11-02T20:41:33.357Z,99130.25
2022-11-02T20:43:59.974Z,99136.69
2022-11-02T20:46:37.544Z,99143.81
2022-11-02T20:49:20.985Z,99138.66
2022-11-02T20:51:53.165Z,99142.19
2022-11-02T20:54:20.918Z,99145.94
2022-11-02T20:56:48.274Z,99142.59
2022-11-02T20:59:15.394Z,99136.13
2022-11-02T21:01:42.132Z,99140.66
2022-11-02T21:04:09.259Z,99136.78
2022-11-02T21:06:36.767Z,99139.44
2022-11-02T21:09:10.984Z,99143.34
2022-11-02T21:11:39.193Z,99145.63
2022-11-02T21:14:05.696Z,99140.41
2022-11-02T21:16:34.701Z,99138.63
2022-11-02T21:19:04.335Z,99138.78
2022-11-02T21:21:30.837Z,99143.69
2022-11-02T21:23:58.535Z,99145.13
2022-11-02T21:26:25.878Z,99145.13
2022-11-02T21:28:52.736Z,99143.66
2022-11-02T21:31:21.270Z,99146.09
2022-11-02T21:33:51.573Z,99140.53
2022-11-02T21:36:18.304Z,99166.00
2022-11-02T21:38:45.955Z,99145.72
2022-11-02T21:41:18.977Z,99149.69
2022-11-02T21:43:45.529Z,99151.16
2022-11-02T21:46:12.179Z,99145.94
2022-11-02T21:48:38.844Z,99146.56
2022-11-02T21:51:09.915Z,99155.44
2022-11-02T21:53:39.138Z,99160.19
2022-11-02T21:56:13.452Z,99157.41
2022-11-02T21:58:44.757Z,99151.63
2022-11-02T22:01:39.349Z,99144.31
2022-11-02T22:04:06.837Z,99132.66
2022-11-02T22:06:34.586Z,99148.50
2022-11-02T22:09:01.864Z,99147.47
2022-11-02T22:11:29.864Z,99142.59
2022-11-02T22:13:58.749Z,99147.19
2022-11-02T22:16:36.761Z,99143.59
2022-11-02T22:19:14.008Z,99146.38
2022-11-02T22:21:43.527Z,99147.13
2022-11-02T22:24:10.655Z,99159.94
2022-11-02T22:26:38.222Z,99147.09
2022-11-02T22:29:06.692Z,99153.28
2022-11-02T22:31:35.550Z,99155.94
2022-11-02T22:34:04.465Z,99166.66
2022-11-02T22:36:33.017Z,99163.56
2022-11-02T22:39:00.803Z,99171.97
2022-11-02T22:41:34.110Z,99165.25
2022-11-02T22:44:08.846Z,99169.38
2022-11-02T22:46:38.204Z,99165.03
2022-11-02T22:49:05.738Z,99171.81
2022-11-02T22:51:35.264Z,99159.84
2022-11-02T22:54:06.099Z,99169.84
2022-11-02T22:56:33.573Z,99160.75
2022-11-02T22:59:00.559Z,99159.63
2022-11-02T23:01:29.153Z,99157.03
2022-11-02T23:03:56.283Z,99157.84
2022-11-02T23:06:23.350Z,99156.16
2022-11-02T23:08:52.181Z,99157.78
2022-11-02T23:11:21.046Z,99163.78
2022-11-02T23:14:04.435Z,99168.44
2022-11-02T23:16:35.974Z,99163.03
2022-11-02T23:19:08.040Z,99161.13
2022-11-02T23:21:34.673Z,99159.03
2022-11-02T23:24:01.619Z,99158.75
2022-11-02T23:26:28.197Z,99162.88
2022-11-02T23:28:54.751Z,99166.81
2022-11-02T23:31:21.275Z,99161.34
2022-11-02T23:33:48.891Z,99167.69
2022-11-02T23:36:15.547Z,99170.88
2022-11-02T23:38:47.180Z,99168.66
2022-11-02T23:41:14.127Z,99171.25
2022-11-02T23:43:40.777Z,99174.13
2022-11-02T23:46:07.281Z,99170.34
2022-11-02T23:48:33.987Z,99169.53
2022-11-02T23:51:00.984Z,99168.28
2022-11-02T23:53:27.531Z,99171.84
2022-11-02T23:55:55.343Z,99170.28
2022-11-02T23:58:21.896Z,99174.94
